Date,TemperatureHighF,TemperatureAvgF,TemperatureLowF,DewpointHighF,DewpointAvgF,DewpointLowF,HumidityHigh,HumidityAvg,HumidityLow,PressureMaxIn,PressureMinIn,WindSpeedMaxMPH,WindSpeedAvgMPH,GustSpeedMaxMPH,PrecipitationSumIn
2013-1-1,41.5,37.2,33.3,31.2,28.2,22.2,77,70,47,29.49,29.09,16,3,22,0.00
2013-1-2,38.7,35.9,32.9,27.1,22.9,19.4,66,59,53,29.45,29.16,6,2,8,0.00
2013-1-3,39.9,36.1,33.8,22.5,18.0,15.2,56,47,43,29.46,29.42,11,4,11,0.00
2013-1-4,35.8,31.9,28.4,18.9,15.9,13.1,58,51,45,29.72,29.46,8,1,11,0.00
2013-1-5,37.2,34.7,28.6,19.6,17.3,13.7,58,49,44,29.64,29.20,11,3,12,0.00
2013-1-6,34.5,32.5,29.7,18.9,16.6,14.3,60,52,45,29.26,28.93,10,3,17,0.00
2013-1-7,33.6,30.0,24.4,19.5,14.2,10.8,57,51,46,30.18,28.94,9,2,11,0.00
2013-1-8,24.1,17.5,11.5,11.5,7.6,3.7,70,64,55,30.78,30.17,3,1,4,0.00
2013-1-9,14.9,10.3,3.6,7.3,1.5,-5.8,71,67,62,30.88,30.72,3,0,3,0.00
2013-1-10,23.7,20.6,13.3,16.7,13.4,4.8,76,73,67,30.94,30.73,2,0,2,0.00
2013-1-11,22.8,22.8,22.8,15.8,15.8,15.8,74,74,74,30.78,30.74,0,0,0,0.00
2013-1-14,41.7,38.2,33.8,34.9,26.0,13.7,85,62,42,30.23,29.92,8,3,12,0.00
2013-1-15,34.0,25.2,21.2,15.9,12.6,10.9,68,58,43,30.53,30.23,7,1,8,0.00
2013-1-16,24.6,21.4,18.3,17.6,13.6,9.3,76,71,64,30.49,29.96,4,0,4,0.00
2013-1-17,20.1,15.5,9.1,13.0,7.4,-0.5,75,69,64,30.24,29.89,0,0,0,0.00
2013-1-18,14.0,7.1,0.9,6.2,-1.9,-9.6,71,66,60,30.52,30.24,0,0,0,0.00
2013-1-19,22.1,16.6,10.2,14.8,8.6,0.9,75,70,65,30.52,30.27,3,0,7,0.00
2013-1-20,28.6,23.4,14.0,22.3,16.5,7.0,78,75,67,30.29,30.16,3,0,5,0.00
2013-1-21,21.7,15.1,10.2,16.0,8.2,1.8,79,74,68,30.22,30.02,4,0,4,0.00
2013-1-22,32.4,26.5,21.9,25.0,20.4,16.2,83,77,73,30.03,29.75,4,0,4,0.00
2013-1-23,34.9,28.7,18.1,28.1,23.1,11.4,84,79,74,29.75,29.63,3,1,4,0.00
2013-1-24,34.9,26.5,16.3,27.8,20.8,9.6,85,78,74,29.80,29.68,3,1,5,0.00
2013-1-25,32.4,15.9,-3.8,27.9,6.2,-15.4,85,65,54,29.91,29.64,2,0,2,0.00
2013-1-26,1.2,-3.8,-6.0,-13.8,-16.2,-17.3,58,54,46,30.18,29.91,0,0,0,0.00
2013-1-27,-0.9,-0.9,-0.9,-15.8,-15.8,-15.8,48,48,48,30.28,30.18,0,0,0,0.00
2013-1-31,36.1,32.3,28.8,30.6,28.0,24.8,86,84,79,30.25,30.02,2,0,2,0.00
2013-2-1,32.9,21.8,13.1,25.3,16.0,6.7,86,78,67,30.30,29.99,0,0,0,0.00
2013-2-2,39.0,30.0,24.6,30.4,21.9,16.6,82,72,59,30.00,29.69,7,0,7,0.00
2013-2-3,37.0,33.1,29.8,28.8,23.2,19.5,84,67,55,29.79,29.57,2,0,2,0.00
2013-2-4,38.3,33.6,27.7,29.0,25.8,22.3,86,73,58,29.95,29.79,6,1,9,0.06
2013-2-5,36.9,25.9,13.3,22.6,15.9,6.3,75,66,45,29.94,29.80,2,0,2,0.00
2013-2-6,29.3,23.4,14.4,23.1,16.8,7.1,79,75,71,29.94,29.77,0,0,0,0.00
2013-2-7,30.0,23.9,16.0,21.7,17.2,9.5,80,75,64,29.92,29.60,0,0,0,0.00
2013-2-8,34.3,27.0,21.7,27.9,21.7,16.6,85,80,76,30.07,29.68,0,0,0,0.01
2013-2-9,44.6,34.5,21.9,27.8,22.2,17.0,81,61,47,30.03,29.31,11,2,14,0.12
2013-2-10,40.1,36.0,31.3,30.8,27.8,25.0,86,72,56,29.80,29.29,8,2,13,0.25
2013-2-11,31.3,27.0,18.3,27.3,20.6,10.6,86,77,63,30.06,29.80,0,0,0,0.00
2013-2-12,29.8,27.4,25.9,22.3,19.9,17.8,76,73,68,30.07,30.03,0,0,0,0.00
2013-2-13,37.2,29.0,26.4,20.6,18.4,14.1,74,65,46,30.13,29.75,7,1,8,0.00
2013-2-14,38.8,33.6,30.0,24.5,17.3,13.3,79,51,42,29.75,29.33,13,3,14,0.00
2013-2-15,32.9,27.7,19.9,26.2,21.4,12.4,83,77,67,30.00,29.59,1,0,1,0.00
2013-2-16,29.7,20.2,11.1,16.3,11.4,3.3,75,68,52,30.11,29.88,0,0,1,0.00
2013-2-17,28.9,22.8,16.9,19.7,14.7,7.6,75,71,63,29.88,29.66,5,1,6,0.00
2013-2-18,26.6,12.3,-4.5,9.6,1.4,-16.1,69,61,44,29.99,29.82,3,1,5,0.00
2013-2-19,16.9,6.3,-6.3,4.6,-6.1,-17.4,61,56,46,29.95,29.41,3,1,3,0.00
2013-2-20,31.5,20.6,14.7,17.1,9.5,4.4,71,62,51,29.41,29.17,4,1,6,0.00
2013-2-21,33.4,22.1,11.5,19.2,10.8,2.4,75,62,42,29.35,29.20,4,1,4,0.00
2013-2-22,29.7,23.1,16.0,19.4,14.8,8.0,76,70,57,29.53,29.28,3,0,4,0.00
2013-2-23,29.8,22.3,14.4,16.4,11.3,6.4,72,62,46,29.50,29.25,7,1,8,0.00
2013-2-24,36.5,27.0,19.4,22.0,16.4,9.9,71,64,52,29.73,29.43,4,1,5,0.00
2013-2-25,43.3,30.4,19.4,13.6,9.6,5.9,56,42,25,29.77,29.68,10,3,13,0.04
2013-2-26,44.6,33.9,27.1,13.0,7.3,1.7,50,33,21,29.68,29.42,13,4,13,0.02
2013-2-27,41.7,33.5,28.8,15.9,9.5,2.5,45,37,24,29.42,29.30,13,4,18,0.00
2013-2-28,42.1,31.5,19.4,26.2,16.1,8.6,71,53,39,29.48,29.39,9,2,9,0.01
2013-3-1,37.0,25.8,17.1,26.4,17.2,9.3,78,70,58,30.01,29.47,3,0,5,0.01
2013-3-2,42.1,24.2,12.2,25.5,14.7,5.3,77,67,49,30.19,30.02,3,1,4,0.00
2013-3-3,39.9,26.1,10.6,19.6,9.7,0.3,65,50,30,30.55,30.19,4,1,8,0.01
2013-3-4,42.1,25.8,15.6,20.7,12.7,4.8,67,58,41,30.56,30.39,4,1,4,0.00
2013-3-5,43.7,26.7,14.7,22.1,13.1,5.5,69,57,37,30.40,30.11,3,1,4,0.00
2013-3-6,41.9,28.2,16.9,22.8,14.9,7.1,68,58,38,30.07,29.94,3,1,3,0.00
2013-3-7,41.7,36.0,24.4,23.2,17.0,13.3,64,46,33,29.93,29.63,7,3,7,0.00
2013-3-8,46.9,40.0,35.2,28.7,25.9,22.3,66,57,48,29.85,29.65,10,3,10,0.00
2013-3-9,45.5,38.2,32.9,27.4,22.7,19.7,80,54,41,30.18,29.86,6,1,6,0.00
2013-3-10,36.9,33.0,27.7,28.4,26.7,22.6,85,77,69,30.30,30.18,3,0,3,0.04
2013-3-11,48.4,29.4,18.3,32.3,19.5,7.6,82,68,41,30.40,30.30,8,1,11,0.15
2013-3-12,37.6,28.9,25.0,10.5,-3.2,-9.6,45,25,19,30.34,30.13,18,6,18,0.00
2013-3-13,32.5,24.7,17.8,-2.3,-9.1,-16.6,24,22,18,30.13,29.90,20,6,24,0.00
2013-3-14,31.1,20.9,14.2,-1.4,-8.8,-16.5,40,26,20,30.00,29.89,13,5,17,0.00
2013-3-15,38.8,28.1,23.2,6.1,-3.4,-5.0,28,25,19,29.97,29.82,11,3,14,0.00
2013-3-16,36.1,36.1,36.1,-1.0,-1.0,-1.0,20,20,20,30.18,29.93,7,2,11,0.00
2013-3-17,47.3,31.2,6.1,12.4,-1.3,-9.2,53,25,20,30.24,29.81,4,2,4,0.00
2013-3-18,44.2,15.1,-3.3,7.8,-5.5,-14.6,59,42,20,29.81,29.65,5,2,6,0.00
2013-3-19,49.1,15.7,-3.5,12.7,-6.2,-14.4,62,40,19,29.68,29.63,8,2,9,0.00
2013-3-20,42.8,10.9,-9.0,5.9,-11.7,-22.7,55,37,19,29.75,29.64,4,1,5,0.00
2013-3-21,49.5,15.2,-6.7,13.2,-7.8,-18.1,56,38,19,29.98,29.75,6,2,6,0.00
2013-3-22,34.9,27.7,22.1,26.1,18.8,-0.1,83,69,36,29.90,29.57,7,2,9,0.00
2013-3-23,44.8,30.3,23.9,24.8,20.3,14.6,79,67,45,29.64,29.52,0,0,1,0.01
2013-3-24,33.3,24.1,16.9,21.8,14.4,7.9,75,66,54,29.62,29.32,0,0,0,0.00
2013-3-25,29.3,17.3,-0.6,18.6,7.3,-10.5,76,65,44,29.46,29.20,3,0,4,0.00
2013-3-26,43.3,6.1,-11.7,6.2,-12.3,-23.9,61,45,18,29.95,29.46,4,1,5,0.00
2013-3-27,42.3,7.2,-16.8,6.4,-11.1,-31.5,57,44,20,30.04,29.94,4,2,6,0.00
2013-3-28,45.7,24.7,12.2,21.1,9.5,-0.7,64,53,29,29.98,29.72,5,1,6,0.01
2013-3-29,47.8,35.6,27.0,26.8,15.9,8.6,56,45,29,29.73,29.65,8,2,10,0.00
2013-3-30,57.7,36.9,25.2,30.4,22.5,14.2,84,58,32,30.01,29.73,5,1,5,0.00
2013-3-31,68.5,38.2,24.3,36.1,27.0,19.9,86,68,24,30.02,29.87,8,2,9,0.00
2013-4-1,59.5,36.4,18.9,34.8,22.1,16.2,94,61,25,29.88,29.72,5,1,5,0.00
2013-4-2,45.0,45.0,45.0,23.3,23.3,23.3,42,42,42,29.87,29.77,3,1,3,0.00
2013-4-4,45.5,34.4,28.8,7.6,1.9,-5.1,29,25,19,29.90,29.74,10,3,11,0.00
2013-4-5,45.5,31.0,22.1,7.9,-1.1,-9.9,39,25,19,29.73,29.46,14,3,14,0.00
2013-4-6,30.0,23.8,17.2,22.4,14.9,5.0,83,69,38,29.47,29.41,4,1,8,0.00
2013-4-7,29.5,22.3,6.3,19.6,12.8,-2.4,85,68,47,29.75,29.47,4,1,4,0.00
2013-4-8,25.5,11.6,-6.5,14.2,1.6,-16.4,73,63,52,29.75,29.24,4,1,4,0.00
2013-4-9,33.1,20.3,13.1,10.0,4.6,-4.8,74,53,24,29.41,29.06,6,1,6,0.01
2013-4-10,29.7,14.7,-1.3,7.2,-4.1,-15.5,60,43,23,29.91,29.41,5,1,6,0.00
2013-4-11,34.9,16.1,-2.2,7.4,-3.1,-12.9,67,45,23,30.06,29.91,6,2,10,0.01
2013-4-12,40.8,16.1,-9.8,6.9,-7.2,-22.4,57,37,19,30.07,29.99,4,1,6,0.07
2013-4-13,44.2,22.3,-4.7,7.8,-2.3,-17.0,57,36,19,30.36,30.07,5,2,6,0.06
2013-4-14,45.1,26.4,5.4,10.8,2.5,-7.2,59,38,20,30.48,30.36,4,2,6,0.00
2013-4-15,49.5,30.5,13.3,20.6,8.0,2.0,60,40,21,30.40,30.26,7,2,8,0.00
2013-4-16,44.2,27.9,11.7,11.9,6.4,1.2,64,42,22,30.26,30.04,12,2,12,0.00
2013-4-17,44.2,27.1,9.0,17.6,8.3,-3.4,66,46,28,30.13,30.04,5,2,8,0.00
2013-4-18,50.0,29.9,9.5,15.9,9.5,0.8,73,46,22,30.14,30.07,8,2,9,0.00
2013-4-19,52.9,36.1,18.7,16.4,11.4,4.5,59,38,21,30.29,30.11,8,2,9,0.00
2013-4-20,56.1,39.7,25.3,20.2,12.4,7.8,56,34,19,30.38,30.28,5,2,10,0.00
2013-4-21,52.3,38.3,23.0,26.9,17.5,12.0,74,46,22,30.38,30.29,8,2,11,0.00
2013-4-22,59.2,40.7,23.9,26.0,21.7,16.6,81,52,22,30.49,30.37,7,2,8,0.00
2013-4-23,36.5,36.5,36.5,24.4,24.4,24.4,61,61,61,30.45,30.30,4,1,8,0.11
2013-4-24,36.5,36.5,36.5,24.4,24.4,24.4,61,61,61,30.30,29.79,5,1,5,0.00
2013-4-25,36.5,36.5,36.5,24.4,24.4,24.4,61,61,61,29.82,29.70,12,3,12,0.00
2013-4-26,36.5,36.5,36.5,24.4,24.4,24.4,61,61,61,29.75,29.45,11,2,14,0.00
2013-4-27,36.5,36.5,36.5,24.4,24.4,24.4,61,61,61,29.88,29.47,10,2,10,0.00
2013-4-28,36.5,36.5,36.5,24.4,24.4,24.4,61,61,61,30.12,29.88,9,2,11,0.00
2013-4-29,36.5,36.5,36.5,24.4,24.4,24.4,61,61,61,30.15,30.06,0,0,0,0.00
2013-4-30,36.5,36.5,36.5,24.4,24.4,24.4,61,61,61,30.07,29.79,0,0,0,0.00
2013-5-1,36.5,36.5,36.5,24.4,24.4,24.4,61,61,61,29.79,29.51,0,0,0,0.00
2013-5-5,55.6,48.4,37.0,31.2,23.5,17.3,59,38,25,30.28,30.24,6,2,7,0.00
2013-5-6,54.7,41.2,28.4,30.4,25.3,20.6,85,56,27,30.41,30.28,4,1,7,0.00
2013-5-7,54.5,40.9,28.4,32.3,27.1,20.7,80,60,37,30.44,30.39,5,1,8,0.00
2013-5-8,62.1,44.0,27.5,31.6,27.0,22.5,86,55,25,30.43,30.37,8,2,8,0.00
2013-5-9,58.6,45.8,30.2,35.6,29.3,23.3,76,54,35,30.47,30.39,4,2,6,0.00
2013-5-10,65.3,50.2,32.0,37.5,32.7,27.5,84,55,31,30.40,30.11,5,2,6,0.00
2013-5-11,66.6,52.1,38.5,38.1,35.0,31.6,77,54,32,30.11,29.74,6,1,7,0.00
2013-5-12,55.6,48.4,41.2,46.1,41.4,36.4,95,77,63,29.75,29.63,4,1,4,0.11
2013-5-13,59.5,45.7,36.9,41.8,33.2,18.5,98,67,25,29.64,29.56,7,1,8,0.00
2013-5-14,49.5,39.6,29.5,34.4,25.5,16.4,82,58,36,29.79,29.61,6,2,6,0.00
2013-5-15,55.9,41.8,30.9,34.2,27.9,17.1,89,62,25,29.92,29.79,8,2,8,0.00
2013-5-16,44.2,40.3,36.0,37.5,32.5,25.0,94,74,55,29.91,29.62,5,2,6,0.02
2013-5-17,39.0,36.4,32.4,38.5,34.5,30.3,98,93,89,29.68,29.54,3,1,4,0.58
2013-5-18,43.2,33.8,27.0,31.5,26.6,21.1,92,76,53,30.31,29.68,6,1,9,0.24
2013-5-19,54.5,38.4,22.1,25.2,20.0,15.7,78,51,26,30.75,30.32,7,2,7,0.00
2013-5-20,61.3,43.5,25.5,27.0,23.0,18.8,80,48,24,30.79,30.68,7,2,7,0.00
2013-5-21,62.2,45.4,27.7,33.0,27.2,21.1,80,52,24,30.72,30.42,7,2,7,0.00
2013-5-22,61.2,47.9,33.1,38.9,32.5,26.4,80,57,33,30.43,30.26,5,1,8,0.00
2013-5-23,65.3,51.3,40.1,43.6,40.2,36.1,94,68,42,30.32,30.24,5,1,7,0.01
2013-5-24,74.3,56.8,-8.3,43.9,38.8,-11.2,90,56,26,30.26,30.12,5,2,7,0.00
2013-5-25,75.9,57.7,35.8,41.1,36.7,25.7,89,51,21,30.16,30.04,8,2,8,0.00
2013-5-26,71.6,54.0,36.5,43.3,38.3,31.5,89,58,25,30.11,30.01,6,1,6,0.00
2013-5-27,82.4,63.0,41.5,46.9,41.8,36.1,91,52,20,30.08,29.91,6,2,9,0.00
2013-5-28,86.5,63.9,40.5,51.1,44.4,36.8,88,54,23,29.95,29.80,4,1,6,0.00
2013-5-29,87.8,67.8,45.5,47.0,42.9,37.0,85,45,21,29.92,29.82,4,1,7,0.00
2013-5-30,78.8,62.6,46.2,47.1,43.4,40.2,85,53,29,30.19,29.92,5,1,5,0.00
2013-5-31,69.3,55.7,42.3,49.4,44.5,38.6,91,68,45,30.32,30.19,6,2,7,0.00
2013-6-1,59.5,51.9,46.2,46.9,44.5,42.0,87,76,60,30.38,30.32,4,1,4,0.00
2013-6-2,58.1,49.2,45.3,49.1,45.2,42.3,98,87,67,30.40,30.25,4,0,6,0.53
2013-6-3,61.2,53.0,43.3,46.1,41.9,38.0,92,68,45,30.25,29.93,6,1,8,0.00
2013-6-4,64.0,54.2,45.1,44.6,40.7,33.8,88,62,34,30.00,29.84,5,1,8,0.00
2013-6-5,67.1,52.9,36.5,41.5,37.9,32.4,94,60,35,30.13,30.00,6,1,6,0.00
2013-6-6,73.2,57.0,39.0,40.9,37.5,33.6,86,52,25,30.13,29.84,6,2,8,0.00
2013-6-7,80.4,58.6,43.7,54.7,43.7,38.4,87,62,24,30.11,29.85,6,1,8,0.05
2013-6-8,81.7,61.1,44.8,52.4,45.6,40.5,91,61,24,30.28,30.11,7,1,7,0.00
2013-6-9,83.3,65.1,46.6,51.3,44.4,31.5,91,54,16,30.36,30.28,6,1,8,0.00
2013-6-10,80.4,63.8,48.0,50.8,45.6,39.9,87,55,27,30.41,30.28,5,1,10,0.00
2013-6-11,81.7,67.1,53.8,49.7,44.2,36.1,72,48,21,30.30,30.13,6,2,8,0.00
2013-6-12,84.4,73.4,68.9,46.7,43.5,37.4,45,36,21,30.17,30.09,8,1,8,0.00
2013-6-13,79.2,76.1,53.4,48.4,39.8,38.2,68,29,23,30.24,29.93,4,1,5,0.00
2013-6-14,80.4,62.2,44.1,51.0,45.4,39.2,84,57,34,30.11,30.02,5,1,6,0.00
2013-6-15,83.3,64.2,46.4,54.4,49.0,42.1,87,61,35,30.17,29.91,6,1,6,0.00
2013-6-16,92.8,70.9,50.5,60.0,52.6,45.8,85,56,29,30.10,29.95,6,1,6,0.00
2013-6-17,92.5,74.3,55.9,61.1,55.2,47.4,78,54,31,29.99,29.73,4,1,6,0.00
2013-6-18,92.7,77.8,61.3,56.2,44.7,36.6,73,33,17,29.77,29.63,13,3,16,0.00
2013-6-19,81.7,67.3,55.6,49.5,45.9,40.7,75,49,24,29.85,29.76,7,2,8,0.00
2013-6-20,81.0,63.8,49.5,52.7,48.5,44.2,85,60,29,29.88,29.79,6,2,7,0.00
2013-6-21,67.5,55.3,48.4,49.2,45.7,42.3,87,71,49,29.95,29.88,5,1,5,0.00
2013-6-22,76.3,60.1,46.6,51.4,45.3,40.9,88,61,29,29.92,29.64,6,1,8,0.00
2013-6-23,76.8,63.1,50.9,50.4,46.2,41.8,75,56,35,29.65,29.50,4,1,5,0.00
2013-6-24,84.7,67.4,52.9,54.0,48.6,43.3,73,53,31,29.54,29.45,5,1,6,0.00
2013-6-25,84.0,67.3,51.8,58.5,52.6,46.9,86,62,39,29.50,29.44,4,1,4,0.00
2013-6-26,88.0,71.4,54.9,60.6,54.2,50.5,87,58,33,29.75,29.48,8,1,8,0.00
2013-6-27,76.3,65.7,57.0,57.6,54.1,50.6,82,67,50,29.94,29.74,4,1,6,0.00
2013-6-28,61.5,58.5,56.3,53.7,51.8,50.2,86,78,71,30.04,29.94,2,0,3,0.00
2013-6-29,68.7,60.7,54.7,55.6,52.9,51.4,89,76,62,30.00,29.86,3,0,4,0.00
2013-6-30,60.8,57.3,55.0,54.8,51.1,48.7,88,80,73,29.91,29.69,2,0,4,0.00
2013-7-1,58.8,53.8,51.1,55.3,50.7,45.2,98,89,76,29.69,29.46,5,1,5,0.34
2013-7-2,63.9,55.3,48.7,52.3,46.9,42.2,86,74,57,29.75,29.46,5,1,5,0.05
2013-7-3,65.7,56.2,49.1,50.0,47.7,45.1,94,75,50,29.88,29.76,3,1,4,0.00
2013-7-4,55.0,52.5,48.9,51.2,49.2,46.6,96,89,81,29.92,29.85,3,0,3,0.17
2013-7-5,66.7,56.4,49.5,52.0,48.6,45.6,93,77,47,29.93,29.87,4,1,5,0.01
2013-7-6,65.3,56.1,51.1,50.9,47.0,44.6,87,72,52,29.91,29.63,4,0,4,0.01
2013-7-7,70.7,58.4,50.7,54.8,48.8,44.0,95,72,49,29.62,29.44,5,1,8,0.19
2013-7-8,64.4,53.8,49.3,51.4,49.3,47.1,99,86,57,29.70,29.54,4,0,4,0.05
2013-7-9,70.7,59.2,50.9,52.4,50.2,47.9,97,74,45,29.89,29.69,4,1,6,0.01
2013-7-10,76.1,62.8,52.0,55.9,51.8,49.7,95,70,44,29.91,29.79,6,1,7,0.02
2013-7-11,82.2,66.5,55.2,58.2,53.5,50.8,86,65,35,29.81,29.75,4,1,8,0.00
2013-7-12,85.3,67.6,52.3,58.0,53.5,48.1,87,63,36,29.83,29.75,6,1,6,0.00
2013-7-13,81.7,67.1,57.6,58.4,54.4,49.6,95,67,39,30.04,29.83,4,1,5,0.02
2013-7-14,74.3,61.7,50.2,55.6,52.1,47.5,93,72,50,30.17,30.04,5,1,5,0.00
2013-7-15,64.0,57.4,48.6,54.5,51.6,46.6,93,81,71,30.22,30.11,3,0,3,0.00
2013-7-16,70.0,61.1,53.4,56.8,54.5,52.8,98,80,62,30.11,29.99,4,1,6,0.02
2013-7-17,70.9,64.0,57.6,60.0,56.6,54.0,90,77,63,30.00,29.93,4,0,4,0.00
2013-7-18,75.0,65.6,56.5,61.0,58.1,54.9,96,78,58,30.01,29.95,5,1,5,0.00
2013-7-19,77.2,67.4,62.1,59.2,56.8,56.5,89,71,50,30.04,29.96,4,1,5,0.00
2013-7-20,76.8,76.8,76.8,56.8,56.8,56.8,50,50,50,29.99,29.90,6,1,7,0.01
2013-7-21,82.2,76.7,73.2,56.8,52.4,43.9,50,43,27,29.92,29.78,10,2,10,0.00
2013-7-22,87.3,76.4,73.2,55.1,49.2,46.8,46,39,27,29.94,29.85,6,1,6,0.00
2013-7-23,83.7,77.5,76.6,56.4,54.8,53.7,46,45,38,29.97,29.88,4,1,4,0.00
2013-7-24,87.6,80.4,79.3,60.1,57.2,55.9,50,45,36,29.91,29.77,5,1,5,0.00
2013-7-25,79.9,79.9,79.9,59.6,59.6,59.6,50,50,50,29.93,29.81,4,1,5,0.17
2013-7-26,79.9,79.9,79.9,59.6,59.6,59.6,50,50,50,30.15,29.93,4,1,4,0.00
2013-7-27,79.9,79.9,79.9,59.6,59.6,59.6,50,50,50,30.20,30.14,3,1,6,0.00
2013-7-28,79.9,79.9,79.9,59.6,59.6,59.6,50,50,50,30.16,30.00,4,1,4,0.00
2013-7-29,79.9,77.6,62.4,59.8,59.0,54.2,77,53,50,30.05,29.92,4,1,4,0.00
2013-7-30,82.2,68.2,57.7,60.7,56.6,52.9,85,68,46,30.01,29.94,4,1,6,0.00
2013-7-31,79.5,65.7,57.0,59.4,55.4,51.4,86,71,49,30.01,29.90,4,1,5,0.00
2013-8-1,73.0,63.6,53.6,57.7,54.3,48.9,88,73,58,29.93,29.75,4,1,4,0.00
2013-8-2,81.1,64.4,52.9,54.8,51.7,48.4,91,66,36,29.78,29.59,4,1,7,0.00
2013-8-3,72.0,63.7,56.3,52.3,49.6,46.7,85,62,43,29.69,29.56,6,1,8,0.06
2013-8-4,70.3,61.4,54.5,53.5,51.0,48.8,87,70,50,29.76,29.69,4,1,4,0.00
2013-8-5,70.9,62.6,54.1,52.4,50.0,47.5,86,64,49,29.77,29.74,5,1,7,0.00
2013-8-6,73.9,63.6,55.9,51.2,48.3,45.4,72,58,39,29.76,29.70,7,2,8,0.00
2013-8-7,65.3,59.6,55.6,54.8,51.0,46.7,89,73,60,29.70,29.54,4,0,5,0.05
2013-8-8,71.2,59.4,52.9,56.0,51.1,46.2,92,75,54,29.62,29.51,4,1,5,0.04
2013-8-9,62.1,54.7,50.5,56.0,50.7,46.7,94,86,74,29.63,29.50,4,1,4,0.30
2013-8-10,63.5,55.7,51.8,57.1,52.6,49.7,95,90,77,29.79,29.55,2,0,3,0.38
2013-8-11,60.3,56.4,51.8,57.1,54.4,50.3,96,93,89,29.81,29.77,3,0,3,0.27
2013-8-12,71.1,61.8,55.8,61.0,57.6,54.6,96,87,69,29.83,29.79,4,0,4,0.11
2013-8-13,74.8,63.5,55.8,60.2,56.7,51.1,93,80,53,29.81,29.73,4,1,6,0.00
2013-8-14,64.0,58.3,54.3,52.5,51.4,49.7,89,78,64,29.83,29.68,3,0,3,0.00
2013-8-15,63.9,58.5,54.3,52.3,51.3,49.7,89,77,64,29.82,29.55,2,0,2,0.00
2013-8-16,66.0,56.4,48.7,56.4,52.8,46.8,94,88,65,29.55,29.44,2,0,2,0.12
2013-8-17,72.1,58.9,52.2,59.1,54.2,50.8,96,85,57,29.45,29.30,4,0,4,0.08
2013-8-18,60.4,56.2,52.9,57.3,53.9,50.6,95,92,88,29.44,29.27,4,0,4,0.31
2013-8-19,54.5,53.0,51.3,52.2,50.3,47.9,94,90,82,29.55,29.44,4,1,4,0.45
2013-8-20,63.1,54.4,50.7,55.1,51.5,49.1,96,90,67,29.62,29.54,3,0,6,0.15
2013-8-21,56.3,52.6,49.8,53.1,50.6,48.3,96,93,88,29.65,29.54,3,1,6,0.44
2013-8-22,57.4,53.3,50.5,54.6,51.0,48.9,95,92,85,29.55,29.46,4,0,5,0.30
2013-8-23,67.8,56.2,51.6,58.1,52.3,48.9,96,88,61,29.47,29.30,9,1,9,0.40
2013-8-24,71.8,55.5,43.7,54.4,48.1,42.9,97,79,41,29.48,29.34,5,1,8,0.01
2013-8-25,70.5,53.8,41.2,48.7,43.4,39.2,93,71,37,29.52,29.46,4,1,6,0.00
2013-8-26,71.8,54.5,41.0,50.1,44.9,39.1,94,73,40,29.54,29.50,3,0,4,0.00
2013-8-27,65.8,53.9,45.0,53.7,48.0,42.5,93,81,56,29.58,29.51,4,0,4,0.05
2013-8-28,64.2,55.5,49.6,54.1,50.7,48.5,96,85,60,29.52,29.38,3,1,4,0.21
2013-8-29,60.4,54.8,50.9,53.3,50.7,48.9,94,86,72,29.65,29.34,5,1,6,0.01
2013-8-30,60.6,55.0,50.4,53.4,50.8,48.7,95,86,75,29.74,29.65,3,0,4,0.01
2013-8-31,55.2,52.5,50.5,52.0,49.8,47.7,94,91,88,29.72,29.62,2,0,3,0.19
2013-9-1,57.7,52.9,50.0,53.6,50.5,48.3,95,92,82,29.63,29.51,3,0,7,0.11
2013-9-2,59.9,54.2,52.0,53.3,50.8,49.5,93,88,73,29.51,29.27,7,2,10,0.40
2013-9-3,66.4,54.6,50.2,55.3,49.4,46.4,93,83,58,29.32,29.06,4,1,9,0.07
2013-9-4,58.1,51.8,49.3,53.3,49.1,46.7,95,91,80,29.58,29.19,3,0,4,0.51
2013-9-5,61.3,50.9,44.4,52.5,47.3,43.3,96,88,63,29.80,29.58,4,0,4,0.02
2013-9-6,55.8,48.0,41.9,48.3,44.2,40.0,94,87,68,29.80,29.20,10,2,10,0.30
2013-9-7,61.7,53.9,48.4,55.0,49.6,46.1,93,86,66,29.42,29.24,4,0,4,0.08
2013-9-8,58.5,52.2,46.6,52.4,49.0,44.4,94,89,76,29.64,29.20,5,0,5,0.19
2013-9-9,64.8,53.7,46.4,45.9,43.9,41.4,93,71,46,29.63,29.43,9,2,17,0.05
2013-9-10,55.9,52.2,49.1,52.4,48.2,45.5,92,86,76,29.54,29.47,6,1,8,0.25
2013-9-11,54.7,51.0,48.9,51.0,48.7,47.3,94,92,85,29.67,29.36,4,1,4,0.61
2013-9-12,62.4,52.2,44.2,52.2,46.2,42.9,95,81,54,29.77,29.67,4,0,4,0.01
2013-9-13,64.9,53.3,46.9,49.7,46.5,43.7,93,79,48,29.73,29.68,10,1,10,0.08
2013-9-14,66.4,50.3,37.8,50.0,44.3,36.2,95,82,54,29.73,29.61,4,0,4,0.00
2013-9-15,65.8,49.1,35.8,46.9,41.0,32.8,94,76,44,29.66,29.48,3,0,4,0.00
2013-9-16,57.6,46.0,34.9,41.4,37.8,31.7,92,75,48,29.48,29.26,3,1,3,0.00
2013-9-17,53.1,48.8,45.1,41.6,39.4,36.9,83,70,58,29.30,29.24,5,1,6,0.00
2013-9-18,51.1,45.6,40.5,43.6,41.2,37.1,91,85,73,29.40,29.29,2,0,3,0.09
2013-9-19,52.3,43.0,33.6,42.7,37.0,28.8,94,81,53,29.36,29.17,5,1,5,0.19
2013-9-20,48.4,35.5,26.8,30.8,25.3,21.0,86,68,38,29.18,28.82,4,1,6,0.00
2013-9-21,46.8,37.3,29.8,38.7,30.4,25.3,87,76,60,28.82,28.71,5,1,8,0.01
2013-9-22,46.0,41.0,37.0,37.7,28.5,25.2,85,62,46,29.05,28.71,8,2,9,0.00
2013-9-23,45.1,37.7,29.8,35.1,28.9,23.7,86,71,57,29.54,29.05,7,1,7,0.02
2013-9-24,46.0,35.1,24.4,36.7,29.2,20.1,88,79,65,29.76,29.54,4,0,6,0.00
2013-9-25,48.9,44.3,39.6,45.8,41.2,33.3,93,89,67,29.58,29.24,5,1,5,0.71
2013-9-26,51.4,45.5,42.3,46.6,42.8,40.4,94,90,83,29.39,29.02,4,0,4,0.11
2013-9-27,57.7,49.1,39.7,42.5,38.3,35.3,87,67,45,29.02,28.77,9,2,9,0.01
2013-9-28,55.8,41.8,32.2,40.8,34.9,28.5,91,77,52,28.92,28.82,3,0,3,0.00
2013-9-29,52.7,44.5,6.1,36.0,33.0,-11.0,80,65,44,29.10,28.89,4,1,5,0.00
2013-9-30,59.0,43.4,29.7,35.2,29.7,24.1,82,60,33,29.39,29.10,4,1,4,0.00
2013-10-1,55.6,43.1,32.9,36.4,31.7,27.7,84,65,42,29.58,29.39,3,0,4,0.01
2013-10-2,49.3,43.3,40.1,43.0,39.6,36.2,93,87,75,29.61,29.55,5,1,8,0.24
2013-10-3,54.9,46.3,37.8,38.8,35.5,33.0,92,68,45,29.56,29.23,11,2,11,0.00
2013-10-4,60.1,46.2,35.8,39.7,35.3,30.1,81,66,44,29.52,29.25,4,1,4,0.00
2013-10-5,52.3,41.9,34.7,39.2,35.3,30.1,91,78,55,29.55,29.46,3,0,4,0.00
2013-10-6,44.6,41.3,37.9,41.7,38.7,34.4,94,90,85,29.49,29.45,2,0,2,0.20
2013-10-7,49.6,42.2,37.6,42.6,38.5,33.7,95,87,68,29.64,29.49,7,0,7,0.04
2013-10-8,43.9,41.8,38.1,40.1,38.4,35.2,93,88,78,29.50,28.82,8,2,19,0.84
2013-10-9,53.8,40.9,34.9,41.2,34.6,29.0,95,79,48,29.50,28.84,5,1,5,0.00
2013-10-10,45.5,38.1,35.8,34.0,30.7,25.4,82,75,46,29.51,29.47,5,0,5,0.07
2013-10-11,46.2,41.2,39.0,43.3,37.6,34.0,93,87,82,29.64,29.49,2,0,2,0.07
2013-10-12,54.9,48.2,41.2,40.3,36.6,31.1,93,66,45,29.62,29.41,11,2,15,0.04
2013-10-13,51.8,46.7,42.8,38.6,36.9,33.3,82,70,49,29.46,29.22,11,3,15,0.18
2013-10-14,45.5,44.2,42.8,39.4,38.6,37.7,82,80,79,29.81,29.46,4,1,4,0.01
2013-10-15,45.5,45.5,45.5,39.4,39.4,39.4,79,79,79,29.89,29.80,7,2,10,0.32
2013-10-16,45.5,45.5,45.5,39.4,39.4,39.4,79,79,79,30.01,29.88,8,1,8,0.00
2013-10-17,45.5,45.5,45.5,39.4,39.4,39.4,79,79,79,29.91,29.56,7,2,9,0.22
2013-10-18,45.5,45.5,45.5,39.4,39.4,39.4,79,79,79,29.57,29.39,11,2,11,0.11
2013-10-19,45.5,45.5,45.5,39.4,39.4,39.4,79,79,79,29.40,29.11,16,3,16,0.00
2013-10-20,54.1,44.9,39.4,35.8,31.5,29.0,72,60,40,30.34,30.05,7,1,8,0.00
2013-10-21,51.4,41.4,34.3,36.9,32.6,28.6,87,72,52,30.43,30.34,4,1,5,0.07
2013-10-22,46.6,39.1,28.0,33.5,30.3,21.5,82,71,56,30.58,30.42,4,0,6,0.00
2013-10-23,41.7,29.1,23.2,31.6,22.4,17.4,85,76,57,30.44,30.14,2,0,3,0.00
2013-10-24,41.9,34.4,23.7,29.0,23.0,18.2,80,64,49,30.21,30.04,10,2,11,0.01
2013-10-25,54.3,38.7,30.0,36.3,29.3,23.9,83,69,48,30.55,30.09,3,0,4,0.00
2013-10-26,47.5,33.4,25.2,34.5,25.9,20.2,85,74,47,30.84,30.55,7,1,8,0.00
2013-10-27,46.8,39.1,33.4,41.4,32.9,24.5,87,79,65,30.69,29.99,9,2,11,0.37
2013-10-28,54.0,45.4,41.0,42.7,39.4,35.0,87,80,55,30.00,29.58,11,2,14,0.58
2013-10-29,55.4,42.3,32.2,36.8,32.0,26.6,84,67,47,29.96,29.76,12,2,12,0.00
2013-10-30,53.4,44.4,34.7,32.1,29.2,25.5,75,55,43,29.75,29.48,11,3,11,0.00
2013-10-31,40.8,37.9,34.2,36.5,32.2,27.3,89,80,69,30.00,29.55,2,0,2,0.05
2013-11-1,43.5,39.5,37.8,39.3,36.3,34.8,90,88,85,30.38,30.00,1,0,2,0.12
2013-11-2,41.5,38.1,35.4,37.5,34.7,31.0,90,87,83,30.38,30.21,2,0,2,0.04
2013-11-3,45.3,40.3,36.1,31.5,27.0,24.8,83,59,47,30.22,29.96,6,2,8,0.00
2013-11-4,39.9,34.4,30.7,29.6,24.0,19.8,75,66,53,29.96,29.67,5,1,6,0.00
2013-11-5,38.5,32.6,28.6,30.7,24.0,17.2,83,71,55,30.34,29.74,4,0,4,0.00
2013-11-6,34.0,23.9,18.3,17.3,13.1,8.0,78,64,45,30.43,30.30,4,0,5,0.00
2013-11-7,27.5,19.9,13.3,14.3,10.2,5.6,72,66,52,30.30,30.17,3,0,4,0.00
2013-11-8,29.1,14.9,7.9,15.1,5.7,-0.7,75,67,48,30.60,30.25,2,0,4,0.00
2013-11-9,28.8,23.1,11.7,24.8,14.8,4.5,85,70,55,30.61,30.38,4,1,4,0.00
2013-11-10,35.6,32.9,28.6,31.7,29.1,24.8,87,86,84,30.38,30.11,5,0,6,1.02
2013-11-11,28.6,23.4,10.4,25.2,18.5,4.4,87,81,76,30.43,30.20,0,0,0,0.00
2013-11-12,19.2,8.9,3.0,11.7,1.6,-4.6,76,71,68,30.53,30.42,0,0,0,0.00
2013-11-13,26.6,21.2,15.1,20.2,15.3,8.7,81,77,74,30.62,30.49,0,0,0,0.00
2013-11-14,32.5,26.6,14.9,28.5,22.2,8.8,86,83,76,30.49,30.26,0,0,0,0.00
2013-11-15,22.6,14.7,6.3,17.0,8.3,-1.3,79,75,69,30.44,30.31,0,0,0,0.00
2013-11-16,22.1,12.3,1.9,15.6,5.2,-6.1,77,72,68,30.59,30.37,0,0,0,0.00
2013-11-17,12.4,1.5,-6.2,4.5,-7.4,-15.3,72,65,62,30.62,30.56,0,0,0,0.00
2013-11-18,4.1,-5.8,-10.3,-5.0,-16.0,-21.5,67,60,55,30.57,30.51,0,0,0,0.00
2013-11-19,1.4,-7.2,-12.8,-7.5,-17.9,-24.2,65,58,54,30.52,30.40,0,0,0,0.00
2013-11-20,4.5,-5.7,-15.5,-5.6,-16.8,-26.7,65,57,52,30.49,30.38,0,0,0,0.00
2013-11-21,17.1,1.6,-10.1,7.7,-9.2,-22.4,68,59,52,30.39,29.65,0,0,0,0.00
2013-11-22,31.5,24.9,16.3,26.9,18.3,7.0,84,76,62,29.87,29.48,0,0,0,0.00
2013-11-23,26.1,19.3,9.0,19.3,12.6,1.3,80,75,70,30.36,29.86,0,0,0,0.00
2013-11-24,29.8,26.5,17.8,25.9,21.3,11.6,85,81,74,30.43,30.35,0,0,0,0.00
2013-11-25,25.2,20.5,17.1,19.3,14.8,10.9,81,78,75,30.38,30.11,0,0,0,0.00
2013-11-26,28.8,25.4,20.5,24.6,20.5,15.3,85,81,80,30.26,30.16,0,0,0,0.00
2013-11-27,28.9,25.7,14.7,25.0,20.5,7.7,85,80,71,30.25,30.06,0,0,0,0.00
2013-11-28,16.7,8.4,-9.0,9.9,-0.3,-20.6,75,67,55,30.36,30.06,0,0,0,0.00
2013-11-29,-9.0,-12.5,-13.0,-20.8,-24.2,-24.8,56,54,54,30.53,30.36,0,0,0,0.00
2013-11-30,-12.8,-12.8,-12.8,-24.5,-24.5,-24.8,54,54,54,30.60,30.52,0,0,0,0.00
2013-12-1,-1.1,-2.7,-4.5,-11.8,-13.3,-14.9,60,59,59,30.96,30.76,0,0,0,0.00
2013-12-2,3.4,-0.5,-1.7,-5.6,-10.8,-12.4,66,61,59,31.09,30.93,0,0,0,0.00
2013-12-3,14.4,4.3,-2.6,7.4,-4.7,-12.5,74,65,60,31.10,30.92,0,0,0,0.00
2013-12-4,23.0,17.1,11.1,17.5,10.8,4.5,79,76,73,30.93,30.80,0,0,0,0.00
2013-12-5,31.3,27.5,23.0,27.6,22.8,17.5,86,82,79,30.90,30.78,0,0,0,0.00
2013-12-6,33.6,32.3,30.6,29.9,28.6,26.9,86,86,85,30.93,30.88,0,0,1,0.00
2013-12-7,34.0,32.9,32.0,30.2,29.4,28.3,87,87,86,30.89,30.82,1,0,1,0.15
2013-12-8,32.5,29.7,27.1,29.1,25.9,22.7,88,85,83,30.85,30.75,0,0,0,0.00
2013-12-9,31.1,28.4,26.8,27.4,24.4,22.1,87,85,82,30.77,30.58,0,0,0,0.00
2013-12-10,29.7,27.6,22.1,26.3,23.8,17.2,87,85,81,30.58,30.16,1,0,1,0.00
2013-12-11,22.6,19.0,16.2,17.0,3.9,-9.0,81,53,29,30.17,29.79,1,0,1,0.00
2013-12-12,17.8,16.3,13.8,1.1,-5.5,-8.5,54,37,30,29.88,29.77,1,0,1,0.00
2013-12-13,19.2,12.2,3.0,11.4,2.2,-6.4,72,63,52,29.89,29.22,1,0,1,0.00
2013-12-14,21.2,17.7,14.9,13.1,8.8,3.7,76,68,55,29.47,29.21,1,0,1,0.00
2013-12-15,16.7,10.7,-3.3,9.6,2.8,-13.2,73,69,61,30.29,29.48,0,0,1,0.00
2013-12-16,5.2,-6.4,-15.2,-3.9,-16.9,-26.4,66,59,53,30.48,30.29,0,0,0,0.00
2013-12-17,-15.2,-15.2,-15.2,-26.4,-26.4,-26.4,55,55,55,30.78,30.48,0,0,0,0.00
2013-12-18,8.1,-10.1,-15.2,-0.8,-21.0,-26.4,66,57,55,30.78,30.19,1,0,1,0.00
2013-12-19,10.8,6.0,0.0,3.3,-2.9,-10.2,71,66,61,30.19,30.02,2,0,2,0.00
2013-12-20,23.4,17.0,8.4,17.8,10.2,-0.7,79,74,65,30.10,30.02,1,0,1,0.00
2013-12-21,28.0,26.0,23.4,23.0,20.7,17.8,81,80,79,30.06,29.86,1,1,1,0.00
2013-12-22,28.6,26.4,17.8,24.9,21.5,10.3,86,81,72,30.07,29.74,1,0,1,0.00
2013-12-23,17.8,-3.0,-12.1,10.3,-12.8,-23.8,73,62,54,30.52,30.07,1,0,1,0.00
2013-12-24,-12.1,-12.1,-12.1,-23.8,-23.8,-23.8,54,54,54,30.54,30.17,0,0,0,0.00
2013-12-25,-12.1,-12.1,-12.1,-23.8,-23.8,-23.8,54,54,54,30.17,30.10,0,0,0,0.00
2013-12-26,7.9,-1.0,-12.1,-0.7,-10.7,-23.8,67,62,54,30.17,30.06,0,0,0,0.00
2013-12-27,11.7,-2.7,-7.1,4.8,-12.2,-17.1,73,62,60,30.36,30.16,0,0,0,0.00
2013-12-28,21.6,17.9,11.7,16.4,11.7,4.8,80,76,73,30.35,30.29,0,0,0,0.00
2013-12-29,19.2,13.0,6.4,12.6,6.1,-1.8,75,73,67,30.34,30.08,0,0,0,0.00
2013-12-30,10.8,6.7,1.9,3.9,-1.6,-6.4,73,68,66,30.08,29.84,0,0,0,0.00
2013-12-31,31.3,16.1,3.7,17.7,6.5,-4.7,79,66,53,30.04,29.64,1,0,1,0.00
2014-1-1,32.7,30.0,28.4,22.0,18.7,15.9,75,62,55,29.89,29.55,1,0,1,0.00
2014-1-2,31.1,28.3,25.5,26.3,23.3,20.8,86,81,76,30.44,29.89,1,0,1,0.00